Leesburg, FL

11:44 AM EST on February 28, 2015 (GMT -0500)
Ocala Regional-Taylor | Change Station
CLOSE
Current Station
Airport
Location: Ocala,
Elevation: 89 ft
Nearby Weather Stations

Elev 89 ft 29.17 °N, 82.22 °W | Updated 54 minutes ago

Overcast
Overcast
61 °F
Feels Like 61 °F
N
6
Wind Variable Wind from NE

Today
High -- | Low -- °F
--% Chance of Precip.
Yesterday
High -- | Low -- °F
Precip. -- in
6:53 AM 6:26 PM
Waxing Gibbous, 78% visible
Pressure 30.38 in
Visibility 10.0 miles
Clouds Scattered Clouds 3500 ft
Mostly Cloudy 12000 ft
Dew Point 55 °F
Humidity 82%
Rainfall 0.00 in
Snow Depth Not available.
UV 4 out of 12
Pollen 10.40 out of 12
Air Quality Not available.
Flu Activity Not available.
METAR KOCF 281550Z 04005KT 10SM SCT035 BKN120 16/13 A3038

More Conditions Fewer Conditions

Pressure 30.38 in
Visibility 10.0 miles
Clouds Scattered Clouds 3500 ft
Mostly Cloudy 12000 ft
Dew Point 55 °F
Humidity 82%
Rainfall 0.00 in
Snow Depth Not available.
UV 4 out of 12
Pollen 10.40 out of 12
Air Quality Not available.
Flu Activity Not available.
METAR KOCF 281550Z 04005KT 10SM SCT035 BKN120 16/13 A3038

More Conditions Fewer Conditions

Nowcast | as of 11:18 am EST on February 28, 2015

High rain chances and cloudy conditions will continue into the late morning and afternoon. The heaviest of rainfall will continue along the coast of St. Lucie and Martin counties through early afternoon from onshore moving stronger showers. Localized heavy rainfall and flooding will continue to cause standing water issues on area roadways in this area. Elsewhere light onshore moving showers or area of light rain spreading northeastward north of a line from Melbourne to Lake Kissimmee. Temperatures currently in the 60s are not forecast to rise much further north of Orlando...while farther south highs in the 70s will be possible in the afternoon. Additional details...including graphics are available online at: http://www.Srh.NOAA.Gov/mlb/blog.Php

×

10-Day Weather Forecast

Almanac

Astronomy

Feb. 28, 2015 Rise Set
Actual Time
Civil Twilight
Nautical Twilight
Astronomical Twilight
Moon
Length of Visible Light
Length of Day
Tomorrow will be .
, % of the Moon is Illuminated

Today's Extremes

State Highs State Lows

Community

WunderPhotos

Upload Photos

1,801,081 photos uploaded!

WunderBlogs® & News

Nearby

Air Quality

  Air Quality AQ Index Pollutant
Not available.

Snow Depth

Station Depth Elevation

Earthquake Activity

City Distance Mag. Time & Date
Minimum magnitude displayed is 2.5.

Coastal Water Temperatures

Place Temperature

Nearby Weather Stations